KCEY/CEY METAR and TAF weather

Enter ICAO airport designator
Station Type Date Time Source
KCEY METAR 2021/10/20 06:55 UTC NOAA

KCEY 200655Z AUTO 16004KT 10SM CLR 12/10 A3017 RMK AO1


Station Type Date Time Source
KCEY Decoded METAR 2021/10/20 06:55 UTC NOAA

Station name not available
Oct 20, 2021 - 02:55 AM EDT / 2021.10.20 0655 UTC
Wind: from the SSE (160 degrees) at 5 MPH (4 KT):0
Visibility: 10 mile(s):0
Sky conditions: clear
Temperature: 53 F (12 C)
Dew Point: 50 F (10 C)
Relative Humidity: 87%
Pressure (altimeter): 30.17 in. Hg (1021 hPa)
ob: KCEY 200655Z AUTO 16004KT 10SM CLR 12/10 A3017 RMK AO1
cycle: 7

Station Type Date Time Source
KCEY TAF UTC NOAA

Error!

Example: see airport list